Time;durP1;ratioP1;P1;durP2;ratioP2;P2;SDS_P1;SDS_P2;PMS_P1;PMS_P2;Temp;Humidity;BMP_temperature;BMP_pressure;BME280_temperature;BME280_humidity;BME280_pressure;Samples;Min_cycle;Max_cycle;Signal;HPM_P1;HPM_P2
2023/08/21 00:01:45;;;;;;;6.93;5.00;;;;;;;22.95;57.66;64381.13;5062979;28;20201;-78
2023/08/21 00:04:12;;;;;;;4.75;4.45;;;;;;;23.00;58.03;64375.44;5071196;28;20228;-79
2023/08/21 00:06:39;;;;;;;5.03;4.63;;;;;;;23.01;57.82;64382.19;5070844;28;20256;-79
2023/08/21 00:09:07;;;;;;;6.60;4.40;;;;;;;23.04;57.81;64387.91;5066162;28;20288;-79
2023/08/21 00:11:34;;;;;;;6.03;4.53;;;;;;;22.95;57.89;64375.41;5069848;28;20209;-80
2023/08/21 00:14:02;;;;;;;5.22;4.75;;;;;;;22.95;57.68;64383.72;5074540;28;20405;-79
2023/08/21 00:16:29;;;;;;;7.65;4.80;;;;;;;22.98;57.49;64381.66;5065654;28;20239;-79
2023/08/21 00:18:57;;;;;;;7.80;5.03;;;;;;;22.97;57.75;64380.59;5064445;28;20240;-79
2023/08/21 00:21:24;;;;;;;4.68;4.38;;;;;;;22.94;58.07;64380.06;5066894;28;20362;-80
2023/08/21 00:23:51;;;;;;;4.60;4.30;;;;;;;22.96;57.98;64382.16;5072982;28;20227;-80
2023/08/21 00:26:18;;;;;;;6.45;4.25;;;;;;;22.97;57.88;64377.50;5068182;28;20272;-79
2023/08/21 00:28:45;;;;;;;5.28;4.82;;;;;;;22.91;58.06;64376.94;5065392;28;20254;-80
2023/08/21 00:31:13;;;;;;;4.55;4.15;;;;;;;22.92;58.56;64373.28;5067469;28;20271;-78
2023/08/21 00:33:40;;;;;;;5.03;4.72;;;;;;;22.92;58.29;64373.28;5065715;28;20221;-79
2023/08/21 00:36:07;;;;;;;4.85;4.32;;;;;;;22.95;58.19;64378.53;5062415;28;20252;-79
2023/08/21 00:38:35;;;;;;;5.05;4.55;;;;;;;22.87;58.23;64372.75;5059929;28;20276;-78
2023/08/21 00:41:02;;;;;;;4.47;4.07;;;;;;;22.90;58.26;64375.88;5066494;28;20220;-80
2023/08/21 00:43:29;;;;;;;4.38;4.07;;;;;;;22.89;57.85;64374.84;5075039;28;20280;-80
2023/08/21 00:45:56;;;;;;;4.35;4.05;;;;;;;22.92;57.83;64380.06;5075622;28;20204;-80
2023/08/21 00:48:25;;;;;;;4.32;4.13;;;;;;;22.88;57.70;64363.91;5077257;28;20220;-78
2023/08/21 00:50:53;;;;;;;4.93;4.53;;;;;;;22.90;58.13;64370.69;5069314;28;20189;-79
2023/08/21 00:53:20;;;;;;;4.88;4.15;;;;;;;22.88;58.30;64369.09;5075285;28;20223;-80
2023/08/21 00:55:48;;;;;;;5.03;4.63;;;;;;;22.90;58.87;64373.28;5075659;28;20251;-81
2023/08/21 00:58:16;;;;;;;5.22;4.88;;;;;;;22.84;58.65;64370.13;5072317;28;20232;-79
2023/08/21 01:00:45;;;;;;;4.80;4.50;;;;;;;22.85;58.59;64365.97;5063934;28;20242;-79
2023/08/21 01:03:12;;;;;;;4.82;4.38;;;;;;;22.79;58.58;64359.72;5068844;28;20217;-78
2023/08/21 01:05:41;;;;;;;9.50;4.95;;;;;;;22.71;59.31;64345.63;5069466;28;20235;-79
2023/08/21 01:08:14;;;;;;;5.95;5.03;;;;;;;22.73;59.27;64352.91;5075407;28;20222;-80
2023/08/21 01:10:51;;;;;;;5.43;4.97;;;;;;;22.69;59.67;64353.94;5066088;28;20216;-80
2023/08/21 01:13:31;;;;;;;5.22;4.72;;;;;;;22.71;58.45;64351.34;5070416;28;20224;-79
2023/08/21 01:15:59;;;;;;;5.78;4.65;;;;;;;22.75;58.03;64355.53;5069971;28;20242;-79
2023/08/21 01:18:29;;;;;;;4.13;3.92;;;;;;;22.73;57.80;64358.09;5065588;28;20247;-79
2023/08/21 01:20:59;;;;;;;5.07;4.68;;;;;;;22.77;57.62;64362.81;5080685;28;20197;-80
2023/08/21 01:23:34;;;;;;;5.60;4.68;;;;;;;22.81;57.23;64361.28;5068895;28;20238;-79
2023/08/21 01:26:02;;;;;;;5.03;4.47;;;;;;;22.92;57.24;64375.38;5069211;28;20200;-78
2023/08/21 01:28:29;;;;;;;4.20;4.00;;;;;;;22.94;56.38;64377.47;5060607;28;20221;-78
2023/08/21 01:31:02;;;;;;;5.15;4.65;;;;;;;22.96;56.65;64379.03;5078289;28;20212;-78
2023/08/21 01:33:34;;;;;;;4.63;4.32;;;;;;;22.97;56.76;64374.88;5067569;28;20225;-78
2023/08/21 01:36:04;;;;;;;4.75;4.35;;;;;;;22.97;57.13;64380.09;5067581;28;20236;-78
2023/08/21 01:38:32;;;;;;;4.90;4.50;;;;;;;22.92;57.40;64374.84;5068121;28;20275;-77
2023/08/21 01:41:00;;;;;;;5.20;4.30;;;;;;;22.91;57.50;64374.34;5068211;28;20197;-78
2023/08/21 01:43:28;;;;;;;5.10;4.20;;;;;;;22.93;57.05;64371.22;5067194;28;20230;-78
2023/08/21 01:45:55;;;;;;;5.07;4.78;;;;;;;22.84;56.95;64364.94;5068307;28;20228;-79
2023/08/21 01:48:22;;;;;;;7.22;4.43;;;;;;;22.89;56.44;64374.84;5069888;28;20217;-79
2023/08/21 01:50:49;;;;;;;4.78;4.47;;;;;;;22.95;56.37;64375.91;5068827;28;20314;-80
2023/08/21 01:53:16;;;;;;;5.80;4.18;;;;;;;22.99;55.64;64380.09;5062082;28;20236;-79
2023/08/21 01:55:43;;;;;;;5.00;4.47;;;;;;;23.05;55.43;64391.03;5075780;28;20235;-79
2023/08/21 01:58:11;;;;;;;4.35;4.05;;;;;;;23.07;55.67;64387.94;5076027;28;20224;-79
2023/08/21 02:00:38;;;;;;;5.40;4.93;;;;;;;23.05;55.55;64383.25;5069873;28;20200;-79
2023/08/21 02:03:06;;;;;;;4.50;4.18;;;;;;;23.06;55.66;64392.59;5068194;28;20221;-80
2023/08/21 02:05:38;;;;;;;4.90;4.60;;;;;;;23.05;55.30;64388.44;5064885;28;20208;-77
2023/08/21 02:08:06;;;;;;;4.68;4.28;;;;;;;23.10;54.79;64398.88;5072055;28;20217;-79
2023/08/21 02:10:33;;;;;;;5.13;4.35;;;;;;;23.08;54.77;64388.97;5068804;28;20224;-79
2023/08/21 02:13:00;;;;;;;4.78;4.40;;;;;;;23.15;54.57;64402.03;5070514;28;20536;-79
2023/08/21 02:15:29;;;;;;;6.32;4.70;;;;;;;23.15;54.67;64398.91;5070193;28;20263;-81
2023/08/21 02:17:56;;;;;;;6.47;4.45;;;;;;;23.22;56.90;64403.63;5068635;28;20410;-79
2023/08/21 02:20:23;;;;;;;5.63;5.22;;;;;;;23.09;56.48;64393.16;5069337;28;20200;-79
2023/08/21 02:22:50;;;;;;;4.85;4.55;;;;;;;22.99;56.48;64374.91;5067762;28;20260;-78
2023/08/21 02:25:16;;;;;;;4.85;4.45;;;;;;;22.99;56.08;64384.78;5086941;28;20246;-78
2023/08/21 02:27:43;;;;;;;7.00;4.45;;;;;;;22.91;56.41;64371.72;5065856;28;20370;-78
2023/08/21 02:30:11;;;;;;;5.32;4.80;;;;;;;22.88;56.75;64373.78;5068554;28;20215;-78
2023/08/21 02:32:40;;;;;;;5.00;4.70;;;;;;;22.86;56.72;64369.63;5069531;28;20373;-80
2023/08/21 02:35:08;;;;;;;4.43;4.15;;;;;;;22.78;57.62;64360.72;5071056;28;20235;-77
2023/08/21 02:37:38;;;;;;;4.63;4.22;;;;;;;22.77;57.33;64354.50;5066422;28;20221;-79
2023/08/21 02:40:08;;;;;;;4.43;4.22;;;;;;;22.69;57.54;64348.72;5054995;28;20221;-79
2023/08/21 02:42:35;;;;;;;5.00;4.60;;;;;;;22.63;57.49;64350.25;5060534;28;20403;-79
2023/08/21 02:45:07;;;;;;;4.55;4.25;;;;;;;22.63;57.93;64340.38;5068854;28;20224;-79
2023/08/21 02:47:35;;;;;;;9.07;4.55;;;;;;;22.55;58.46;64337.22;5066472;28;20205;-77
2023/08/21 02:50:04;;;;;;;5.35;4.95;;;;;;;22.53;58.64;64334.56;5069454;28;20232;-79
2023/08/21 02:52:31;;;;;;;4.47;4.22;;;;;;;22.48;59.20;64329.34;5079981;28;20196;-78
2023/08/21 02:54:58;;;;;;;4.80;4.50;;;;;;;22.44;59.16;64323.09;5068710;28;20282;-79
2023/08/21 02:57:26;;;;;;;5.05;4.60;;;;;;;22.35;59.36;64313.69;5061871;28;20243;-78
2023/08/21 02:59:53;;;;;;;8.43;5.18;;;;;;;22.40;58.71;64318.41;5082149;28;20275;-79
2023/08/21 03:02:20;;;;;;;5.28;4.88;;;;;;;22.30;59.07;64310.53;5069355;28;20215;-79
2023/08/21 03:04:47;;;;;;;7.30;4.68;;;;;;;22.26;60.11;64304.28;5071585;28;20209;-77
2023/08/21 03:07:18;;;;;;;4.70;4.40;;;;;;;22.19;60.06;64301.63;5064860;28;20505;-79
2023/08/21 03:09:46;;;;;;;8.13;4.97;;;;;;;22.13;60.84;64290.69;5063638;28;20220;-79
2023/08/21 03:12:14;;;;;;;5.45;4.95;;;;;;;22.09;61.45;64289.09;5067558;28;20268;-78
2023/08/21 03:14:41;;;;;;;5.72;4.32;;;;;;;22.06;61.26;64282.84;5061874;28;20253;-78
2023/08/21 03:17:08;;;;;;;4.57;4.28;;;;;;;21.97;61.38;64279.16;5067495;28;20228;-80
2023/08/21 03:19:35;;;;;;;5.55;4.35;;;;;;;21.94;61.68;64267.72;5080424;28;20242;-78
2023/08/21 03:22:02;;;;;;;4.90;4.50;;;;;;;21.90;63.19;64266.13;5068376;28;20221;-79
2023/08/21 03:24:31;;;;;;;4.90;4.60;;;;;;;21.82;63.68;64262.94;5066697;28;20423;-79
2023/08/21 03:26:58;;;;;;;5.88;5.28;;;;;;;21.87;63.14;64263.50;5083169;28;20207;-79
2023/08/21 03:29:25;;;;;;;5.10;4.78;;;;;;;21.77;63.52;64253.59;5074217;28;20219;-78
2023/08/21 03:31:56;;;;;;;5.80;4.68;;;;;;;21.77;64.33;64255.66;5070281;28;20196;-79
2023/08/21 03:34:24;;;;;;;5.65;4.90;;;;;;;21.64;64.37;64239.47;5063108;28;20233;-79
2023/08/21 03:36:51;;;;;;;5.30;4.80;;;;;;;21.62;64.22;64237.38;5070465;28;20303;-77
2023/08/21 03:39:18;;;;;;;5.00;4.60;;;;;;;21.58;65.77;64231.13;5068886;28;20266;-79
2023/08/21 03:41:46;;;;;;;5.10;4.60;;;;;;;21.55;65.94;64230.06;5076735;28;20202;-78
2023/08/21 03:44:13;;;;;;;5.38;5.05;;;;;;;21.52;65.38;64229.50;5066513;28;20225;-79
2023/08/21 03:46:40;;;;;;;5.18;4.78;;;;;;;21.48;65.37;64220.69;5067650;28;20205;-79
2023/08/21 03:49:08;;;;;;;5.00;4.60;;;;;;;21.44;65.20;64219.09;5066396;28;20347;-80
2023/08/21 03:51:34;;;;;;;5.07;4.68;;;;;;;21.50;65.25;64222.25;5063153;28;20205;-79
2023/08/21 03:54:01;;;;;;;6.95;5.00;;;;;;;21.48;65.72;64225.88;5065784;28;20442;-80
2023/08/21 03:56:28;;;;;;;6.72;5.85;;;;;;;21.45;66.49;64214.94;5066293;28;20303;-79
2023/08/21 03:58:57;;;;;;;5.32;4.30;;;;;;;21.49;66.28;64228.97;5069536;28;20221;-79
2023/08/21 04:01:23;;;;;;;5.78;4.80;;;;;;;21.54;65.12;64229.00;5066503;28;20219;-79
2023/08/21 04:03:50;;;;;;;8.35;4.95;;;;;;;21.62;64.55;64239.97;5069522;28;20239;-79
2023/08/21 04:06:17;;;;;;;5.75;5.28;;;;;;;21.64;64.38;64239.47;5066850;28;20208;-79
2023/08/21 04:08:44;;;;;;;5.88;4.43;;;;;;;21.70;65.03;64243.16;5067146;28;20227;-79
2023/08/21 04:11:11;;;;;;;5.07;4.57;;;;;;;21.70;64.54;64246.25;5064609;28;20200;-80
2023/08/21 04:13:38;;;;;;;4.95;4.60;;;;;;;21.81;64.54;64262.44;5072725;28;20224;-80
2023/08/21 04:16:08;;;;;;;4.15;3.95;;;;;;;21.85;64.16;64258.84;5066780;28;20224;-78
2023/08/21 04:18:36;;;;;;;4.95;4.32;;;;;;;21.92;65.60;64270.81;5062648;28;20272;-78
2023/08/21 04:21:03;;;;;;;4.72;4.43;;;;;;;21.96;66.99;64272.94;5061574;28;20200;-79
2023/08/21 04:23:31;;;;;;;5.40;4.90;;;;;;;22.06;63.98;64285.44;5065886;28;20221;-79
2023/08/21 04:26:01;;;;;;;5.72;4.82;;;;;;;22.13;64.06;64284.97;5066248;28;20528;-79
2023/08/21 04:28:28;;;;;;;4.70;4.40;;;;;;;22.18;64.95;64295.91;5064143;28;20376;-80
2023/08/21 04:30:57;;;;;;;4.78;4.47;;;;;;;22.23;65.11;64301.13;5061773;28;20232;-80
2023/08/21 04:33:26;;;;;;;4.45;4.15;;;;;;;22.32;64.59;64315.75;5066520;28;20224;-78
2023/08/21 04:35:52;;;;;;;4.95;4.65;;;;;;;22.46;63.55;64329.84;5066524;28;20445;-79
2023/08/21 04:38:19;;;;;;;4.63;4.32;;;;;;;22.53;64.93;64339.75;5067478;28;20237;-80
2023/08/21 04:40:46;;;;;;;4.90;4.50;;;;;;;22.60;64.23;64342.44;5067175;28;20227;-80
2023/08/21 04:43:14;;;;;;;5.15;4.70;;;;;;;22.75;61.55;64357.59;5065766;28;20220;-78
2023/08/21 04:45:48;;;;;;;9.88;5.00;;;;;;;22.95;61.25;64378.00;5069662;28;20205;-79
2023/08/21 04:48:15;;;;;;;5.60;5.10;;;;;;;23.13;59.59;64397.34;5067540;28;20220;-78
2023/08/21 04:50:44;;;;;;;5.13;4.72;;;;;;;23.31;58.22;64413.59;5066406;28;20239;-78
2023/08/21 04:53:11;;;;;;;7.22;4.88;;;;;;;23.31;58.62;64416.19;5068806;28;20280;-77
2023/08/21 04:55:40;;;;;;;9.05;4.35;;;;;;;23.32;64.53;64417.22;5068132;28;20196;-79
2023/08/21 04:58:07;;;;;;;6.03;5.47;;;;;;;23.29;66.94;64411.50;5060151;28;20243;-81
2023/08/21 05:00:35;;;;;;;6.18;4.88;;;;;;;23.46;66.19;64431.88;5070632;28;20203;-78
2023/08/21 05:03:02;;;;;;;5.63;5.13;;;;;;;23.58;62.44;64443.91;5067268;28;20204;-79
2023/08/21 05:05:29;;;;;;;6.57;4.32;;;;;;;23.61;63.11;64447.03;5061567;28;20200;-80
2023/08/21 05:07:57;;;;;;;5.50;4.90;;;;;;;23.54;64.48;64442.84;5068401;28;20201;-78
2023/08/21 05:10:24;;;;;;;5.60;4.85;;;;;;;23.44;64.40;64429.25;5064866;28;20227;-78
2023/08/21 05:12:51;;;;;;;5.72;5.13;;;;;;;23.39;63.26;64424.56;5061153;28;20211;-81
2023/08/21 05:15:22;;;;;;;8.65;7.00;;;;;;;23.35;62.74;64417.78;5056576;28;20323;-79
2023/08/21 05:17:49;;;;;;;9.73;6.57;;;;;;;23.30;63.31;64415.13;5056248;28;20236;-78
2023/08/21 05:20:16;;;;;;;6.47;5.97;;;;;;;23.40;63.36;64423.00;5066216;28;20201;-80
2023/08/21 05:22:43;;;;;;;9.48;5.88;;;;;;;23.47;61.51;64427.22;5061926;28;20209;-79
2023/08/21 05:25:17;;;;;;;12.45;6.10;;;;;;;23.50;62.16;64438.66;5063580;28;20193;-82
2023/08/21 05:27:44;;;;;;;5.93;5.18;;;;;;;23.43;63.27;64428.22;5063337;28;20208;-80
2023/08/21 05:30:13;;;;;;;12.13;6.05;;;;;;;23.50;63.66;64436.06;5063170;28;20196;-79
2023/08/21 05:32:40;;;;;;;11.25;5.55;;;;;;;23.55;63.86;64438.69;5067365;28;20280;-78
2023/08/21 05:35:09;;;;;;;9.43;6.28;;;;;;;23.58;65.17;64441.84;5067691;28;20281;-79
2023/08/21 05:37:36;;;;;;;10.95;6.50;;;;;;;23.58;64.74;64447.03;5064751;28;20274;-79
2023/08/21 05:40:03;;;;;;;7.85;6.90;;;;;;;23.61;65.04;64447.56;5069697;28;20233;-79
2023/08/21 05:42:32;;;;;;;8.60;7.57;;;;;;;23.60;65.36;64441.34;5069594;28;20201;-78
2023/08/21 05:44:59;;;;;;;13.93;6.97;;;;;;;23.75;65.15;64456.50;5068003;28;20267;-79
2023/08/21 05:47:26;;;;;;;11.48;7.20;;;;;;;23.85;65.47;64466.94;5070794;28;20193;-78
2023/08/21 05:49:54;;;;;;;16.15;7.82;;;;;;;24.08;65.30;64493.66;5070168;28;20233;-79
2023/08/21 05:52:23;;;;;;;22.40;8.68;;;;;;;24.18;65.42;64509.31;5072004;28;20272;-79
2023/08/21 05:54:50;;;;;;;12.95;7.28;;;;;;;24.28;64.10;64514.06;5072252;28;20225;-78
2023/08/21 05:57:16;;;;;;;25.60;9.43;;;;;;;24.18;64.34;64508.81;5058954;28;20229;-78
2023/08/21 05:59:47;;;;;;;18.55;8.45;;;;;;;24.35;62.89;64521.91;5070284;28;20228;-80
2023/08/21 06:02:15;;;;;;;14.68;7.03;;;;;;;24.41;62.46;64530.28;5071464;28;20219;-78
2023/08/21 06:04:44;;;;;;;10.48;7.03;;;;;;;24.52;60.31;64539.19;5063005;28;20349;-79
2023/08/21 06:07:11;;;;;;;11.90;7.07;;;;;;;24.71;61.75;64556.50;5067865;28;20204;-79
2023/08/21 06:09:38;;;;;;;6.88;6.20;;;;;;;24.84;59.09;64575.31;5076054;28;20252;-79
2023/08/21 06:12:06;;;;;;;13.88;7.03;;;;;;;24.85;57.47;64571.19;5084908;28;20207;-78
2023/08/21 06:14:35;;;;;;;7.00;5.53;;;;;;;24.76;57.43;64567.47;5067467;28;20232;-79
2023/08/21 06:17:05;;;;;;;11.65;6.75;;;;;;;24.97;58.45;64591.56;5059360;28;20232;-80
2023/08/21 06:19:32;;;;;;;18.45;7.70;;;;;;;25.12;58.26;64604.66;5070890;28;20219;-79
2023/08/21 06:22:00;;;;;;;11.00;6.95;;;;;;;25.20;58.18;64607.28;5071058;28;20211;-79
2023/08/21 06:24:29;;;;;;;11.82;7.13;;;;;;;25.34;56.55;64624.56;5067399;28;20221;-79
2023/08/21 06:26:56;;;;;;;14.07;8.25;;;;;;;25.39;57.11;64630.34;5070814;28;20223;-78
2023/08/21 06:29:23;;;;;;;9.65;7.20;;;;;;;25.32;57.20;64628.22;5071696;28;20228;-78
2023/08/21 06:31:51;;;;;;;7.80;6.50;;;;;;;25.37;56.51;64630.34;5075562;28;20209;-79
2023/08/21 06:34:20;;;;;;;10.35;6.50;;;;;;;25.47;55.57;64638.72;5082000;28;20278;-79
2023/08/21 06:36:46;;;;;;;8.15;6.30;;;;;;;25.38;52.96;64626.72;5069012;28;20225;-78
2023/08/21 06:39:13;;;;;;;12.18;5.68;;;;;;;25.38;53.90;64628.78;5068691;28;20247;-80
2023/08/21 06:41:40;;;;;;;6.22;5.60;;;;;;;25.63;52.44;64654.97;5071970;28;20204;-78
2023/08/21 06:44:08;;;;;;;14.13;6.00;;;;;;;25.63;52.77;64655.50;5073445;28;20228;-81
2023/08/21 06:46:36;;;;;;;9.23;6.15;;;;;;;25.78;53.18;64675.91;5068506;28;20215;-79
2023/08/21 06:49:04;;;;;;;8.30;6.10;;;;;;;25.82;53.22;64677.50;5067890;28;20276;-80
2023/08/21 06:51:33;;;;;;;14.23;6.00;;;;;;;25.89;53.32;64682.22;5065280;28;20304;-79
2023/08/21 06:54:00;;;;;;;6.72;6.13;;;;;;;26.02;52.82;64699.00;5066676;28;20231;-78
2023/08/21 06:56:26;;;;;;;8.82;6.93;;;;;;;25.94;52.30;64693.22;5066866;28;20216;-78
2023/08/21 06:58:55;;;;;;;10.93;6.13;;;;;;;26.05;52.41;64699.03;5068579;28;20591;-77
2023/08/21 07:01:21;;;;;;;11.07;6.30;;;;;;;26.06;52.39;64705.81;5069165;28;20220;-78
2023/08/21 07:03:48;;;;;;;12.10;6.25;;;;;;;26.15;51.28;64709.50;5068674;28;20259;-75
2023/08/21 07:06:17;;;;;;;9.43;6.30;;;;;;;26.27;50.90;64726.78;5064722;28;20208;-78
2023/08/21 07:08:46;;;;;;;12.07;6.32;;;;;;;26.22;50.85;64722.06;5072528;28;20223;-77
2023/08/21 07:11:13;;;;;;;13.23;6.13;;;;;;;26.32;50.30;64729.94;5068148;28;20217;-77
2023/08/21 07:13:40;;;;;;;8.48;5.50;;;;;;;26.31;49.31;64731.50;5060428;28;20224;-78
2023/08/21 07:16:08;;;;;;;5.80;5.43;;;;;;;26.31;49.41;64723.13;5068665;28;20212;-79
2023/08/21 07:18:36;;;;;;;11.18;7.13;;;;;;;26.57;48.82;64758.22;5069601;28;20233;-79
2023/08/21 07:21:04;;;;;;;6.10;5.35;;;;;;;26.67;48.13;64766.13;5072148;28;20196;-78
2023/08/21 07:23:31;;;;;;;6.47;5.78;;;;;;;26.81;48.06;64781.34;5065886;28;20255;-80
2023/08/21 07:26:00;;;;;;;6.75;5.68;;;;;;;26.90;47.76;64787.66;5066703;28;20200;-79
2023/08/21 07:28:27;;;;;;;12.00;6.03;;;;;;;27.10;46.71;64813.84;5069530;28;20231;-77
2023/08/21 07:30:59;;;;;;;10.00;5.78;;;;;;;27.35;46.65;64837.50;5071809;28;20552;-79
2023/08/21 07:33:27;;;;;;;6.07;5.57;;;;;;;27.37;46.34;64839.06;5065899;28;20256;-80
2023/08/21 07:36:03;;;;;;;7.65;5.22;;;;;;;27.45;45.15;64845.38;5069051;28;20228;-78
2023/08/21 07:38:30;;;;;;;7.32;5.32;;;;;;;27.46;45.57;64846.41;5066859;28;20278;-78
2023/08/21 07:41:07;;;;;;;6.40;5.85;;;;;;;27.47;46.32;64847.47;5081782;28;20222;-78
2023/08/21 07:43:34;;;;;;;5.80;5.22;;;;;;;27.47;45.63;64852.69;5063938;28;20225;-77
2023/08/21 07:46:04;;;;;;;6.20;5.60;;;;;;;27.45;46.30;64842.22;5066871;28;20205;-77
2023/08/21 07:48:31;;;;;;;7.93;5.30;;;;;;;27.56;45.22;64856.38;5067142;28;20239;-78
2023/08/21 07:50:59;;;;;;;12.15;5.60;;;;;;;27.77;45.78;64878.94;5069780;28;20385;-79
2023/08/21 07:53:27;;;;;;;11.52;5.13;;;;;;;27.92;44.82;64897.31;5069590;28;20228;-79
2023/08/21 07:55:54;;;;;;;6.95;5.43;;;;;;;27.83;44.77;64893.09;5066857;28;20215;-78
2023/08/21 07:58:22;;;;;;;5.20;4.85;;;;;;;27.96;44.08;64903.59;5063022;28;20289;-78
2023/08/21 08:00:50;;;;;;;4.95;4.65;;;;;;;28.16;44.62;64919.88;5064923;28;20200;-80
2023/08/21 08:03:17;;;;;;;8.02;5.30;;;;;;;28.23;43.62;64929.84;5067591;28;20293;-79
2023/08/21 08:05:44;;;;;;;5.68;5.05;;;;;;;28.34;43.54;64935.66;5067177;28;20239;-80
2023/08/21 08:08:11;;;;;;;8.02;5.20;;;;;;;28.62;42.72;64972.41;5069998;28;20236;-78
2023/08/21 08:10:40;;;;;;;6.40;5.80;;;;;;;28.73;42.74;64983.97;5066686;28;20230;-79
2023/08/21 08:13:07;;;;;;;6.70;5.30;;;;;;;28.94;43.75;65006.03;5069574;28;20223;-78
2023/08/21 08:15:36;;;;;;;5.20;4.90;;;;;;;29.07;41.71;65014.44;5075497;28;20234;-79
2023/08/21 08:18:05;;;;;;;5.93;5.38;;;;;;;29.05;42.19;65017.56;5072108;28;20247;-78
2023/08/21 08:20:32;;;;;;;8.30;5.20;;;;;;;29.15;41.46;65028.09;5069854;28;20205;-79
2023/08/21 08:22:59;;;;;;;4.70;4.40;;;;;;;29.25;40.75;65039.13;5070170;28;20194;-79
2023/08/21 08:25:26;;;;;;;5.47;5.03;;;;;;;29.27;40.68;65038.63;5068298;28;20196;-78
2023/08/21 08:27:53;;;;;;;5.47;4.90;;;;;;;29.06;40.95;65013.38;5065783;28;20201;-79
2023/08/21 08:30:23;;;;;;;8.93;4.95;;;;;;;29.27;41.07;65038.63;5065815;28;20193;-78
2023/08/21 08:32:52;;;;;;;5.70;5.20;;;;;;;29.22;40.63;65035.44;5061759;28;20215;-80
2023/08/21 08:35:19;;;;;;;8.35;5.68;;;;;;;29.34;40.29;65045.44;5052790;28;20364;-77
2023/08/21 08:37:47;;;;;;;6.07;5.30;;;;;;;29.30;40.60;65041.75;5051832;28;20239;-79
2023/08/21 08:40:15;;;;;;;8.52;5.32;;;;;;;29.30;40.34;65041.25;5064651;28;20207;-80
2023/08/21 08:42:42;;;;;;;6.60;4.93;;;;;;;29.37;38.89;65051.75;5057017;28;20196;-79
2023/08/21 08:45:13;;;;;;;7.55;6.28;;;;;;;29.42;39.50;65053.84;5050627;28;20326;-80
2023/08/21 08:47:42;;;;;;;5.85;5.20;;;;;;;29.66;40.04;65081.69;5066343;28;20208;-80
2023/08/21 08:50:11;;;;;;;5.78;5.15;;;;;;;29.67;40.64;65079.59;5066511;28;20216;-80
2023/08/21 08:52:40;;;;;;;5.32;4.85;;;;;;;29.68;39.75;65083.28;5067835;28;20445;-79
2023/08/21 08:55:09;;;;;;;5.60;4.68;;;;;;;29.81;39.25;65091.69;5064860;28;20377;-81
2023/08/21 08:57:36;;;;;;;5.13;4.72;;;;;;;30.23;39.28;65139.03;5068095;28;20228;-80
2023/08/21 09:00:04;;;;;;;8.00;5.00;;;;;;;30.51;39.06;65171.09;5069203;28;20217;-80
2023/08/21 09:02:32;;;;;;;7.93;5.05;;;;;;;30.61;38.11;65176.34;5067718;28;20211;-80
2023/08/21 09:04:59;;;;;;;5.00;4.60;;;;;;;30.69;38.04;65186.88;5070671;28;20225;-80
2023/08/21 09:07:27;;;;;;;4.57;4.22;;;;;;;30.84;37.13;65202.16;5067433;28;20200;-78
2023/08/21 09:09:55;;;;;;;7.13;4.57;;;;;;;30.69;37.32;65186.34;5066163;28;20216;-79
2023/08/21 09:12:22;;;;;;;5.45;4.97;;;;;;;30.79;36.64;65202.13;5068085;28;20219;-79
2023/08/21 09:14:49;;;;;;;4.75;4.35;;;;;;;30.82;36.47;65197.41;5078706;28;20230;-80
2023/08/21 09:17:17;;;;;;;5.75;5.15;;;;;;;30.94;36.51;65207.41;5081301;28;20204;-81
2023/08/21 09:19:44;;;;;;;5.45;4.85;;;;;;;30.99;35.83;65215.84;5074052;28;20296;-80
2023/08/21 09:22:13;;;;;;;5.30;4.53;;;;;;;31.08;35.82;65222.66;5075773;28;20268;-80
2023/08/21 09:25:05;;;;;;;5.80;5.30;;;;;;;31.09;36.36;65228.44;5073480;28;20220;-79
2023/08/21 09:27:33;;;;;;;5.47;5.10;;;;;;;30.95;37.42;65216.34;5071129;28;20221;-80
2023/08/21 09:30:02;;;;;;;5.22;4.93;;;;;;;31.07;37.54;65223.72;5068550;28;20226;-78
2023/08/21 09:32:29;;;;;;;6.03;5.32;;;;;;;31.19;35.41;65236.88;5076548;28;20247;-79
2023/08/21 09:34:56;;;;;;;9.02;4.80;;;;;;;31.04;35.69;65225.81;5073440;28;20530;-80
2023/08/21 09:37:29;;;;;;;6.85;5.20;;;;;;;30.67;36.25;65186.88;5071747;28;20403;-82
2023/08/21 09:40:04;;;;;;;8.68;4.82;;;;;;;30.73;36.81;65187.94;5063682;28;20220;-80
2023/08/21 09:42:31;;;;;;;5.50;5.03;;;;;;;30.78;36.15;65195.81;5070433;28;20196;-79
2023/08/21 09:44:58;;;;;;;6.75;5.10;;;;;;;30.88;36.51;65212.16;5071010;28;20234;-78
2023/08/21 09:47:27;;;;;;;8.18;5.18;;;;;;;30.99;36.35;65223.19;5068219;28;20208;-80
2023/08/21 09:49:54;;;;;;;5.65;5.25;;;;;;;30.88;35.15;65206.34;5069874;28;20258;-78
2023/08/21 09:52:22;;;;;;;5.30;4.90;;;;;;;30.68;35.71;65182.66;5069648;28;20211;-79
2023/08/21 09:54:49;;;;;;;5.80;5.10;;;;;;;30.60;35.79;65180.03;5069457;28;20228;-79
2023/08/21 09:57:18;;;;;;;6.10;4.72;;;;;;;30.64;36.05;65179.00;5062536;28;20228;-79
2023/08/21 09:59:45;;;;;;;5.43;5.03;;;;;;;30.77;36.18;65194.78;5075042;28;20232;-82
2023/08/21 10:02:13;;;;;;;9.95;4.90;;;;;;;30.88;36.76;65209.50;5071382;28;20192;-79
2023/08/21 10:04:45;;;;;;;6.88;4.30;;;;;;;31.10;36.75;65229.50;5070038;28;20263;-82
2023/08/21 10:07:12;;;;;;;5.45;4.90;;;;;;;31.36;36.14;65254.22;5068840;28;20252;-81
2023/08/21 10:09:42;;;;;;;6.43;5.43;;;;;;;31.62;35.89;65284.75;5067883;28;20229;-79
2023/08/21 10:12:10;;;;;;;12.60;5.50;;;;;;;31.80;35.72;65297.91;5071440;28;20436;-81
2023/08/21 10:14:39;;;;;;;5.38;4.93;;;;;;;31.97;34.61;65326.38;5068233;28;20216;-80
2023/08/21 10:17:07;;;;;;;11.70;4.30;;;;;;;32.20;35.20;65350.59;5071318;28;20205;-82
2023/08/21 10:19:35;;;;;;;8.02;4.85;;;;;;;32.38;34.67;65364.25;5066430;28;20256;-79
2023/08/21 10:22:03;;;;;;;5.45;4.97;;;;;;;32.44;33.60;65375.88;5070975;28;20205;-80
2023/08/21 10:24:35;;;;;;;4.97;4.57;;;;;;;32.29;33.26;65354.25;5081052;28;20222;-81
2023/08/21 10:27:02;;;;;;;4.53;4.22;;;;;;;31.93;32.70;65321.63;5068885;28;20550;-79
2023/08/21 10:29:31;;;;;;;4.45;4.13;;;;;;;31.98;33.21;65324.25;5069079;28;20224;-79
2023/08/21 10:32:04;;;;;;;8.80;4.55;;;;;;;31.80;33.12;65307.91;5069128;28;20268;-80
2023/08/21 10:34:37;;;;;;;5.43;4.40;;;;;;;31.94;34.18;65314.78;5071755;28;20229;-82
2023/08/21 10:37:07;;;;;;;5.47;4.28;;;;;;;32.09;34.98;65330.56;5069424;28;20196;-82
2023/08/21 10:39:37;;;;;;;4.40;4.10;;;;;;;32.21;33.70;65349.00;5071970;28;20243;-81
2023/08/21 10:42:07;;;;;;;5.05;4.75;;;;;;;32.29;32.97;65357.41;5086095;28;20196;-81
2023/08/21 10:44:55;;;;;;;5.18;4.80;;;;;;;32.49;33.63;65375.88;5075171;28;20579;-80
2023/08/21 10:47:32;;;;;;;5.00;4.70;;;;;;;32.77;33.07;65407.97;5071825;28;20211;-81
2023/08/21 10:50:01;;;;;;;4.25;3.95;;;;;;;32.90;32.38;65417.97;5078886;28;20216;-81
2023/08/21 10:52:29;;;;;;;4.63;4.22;;;;;;;32.75;32.18;65403.22;5068993;28;20239;-78
2023/08/21 10:54:59;;;;;;;4.40;4.00;;;;;;;32.58;31.98;65385.34;5065681;28;20228;-80
2023/08/21 10:57:29;;;;;;;5.35;4.30;;;;;;;32.70;30.57;65402.72;5074367;28;20208;-81
2023/08/21 11:00:04;;;;;;;5.10;3.95;;;;;;;32.91;30.79;65421.69;5076368;28;20231;-81
2023/08/21 11:02:33;;;;;;;5.07;4.55;;;;;;;33.08;30.55;65437.50;5073208;28;20228;-82
2023/08/21 11:05:02;;;;;;;11.55;4.90;;;;;;;33.46;31.37;65479.66;5072476;28;20229;-82
2023/08/21 11:07:30;;;;;;;5.70;4.43;;;;;;;33.60;30.30;65497.59;5065880;28;20212;-80
2023/08/21 11:09:58;;;;;;;4.05;3.85;;;;;;;33.37;30.14;65464.88;5068248;28;20228;-80
2023/08/21 11:12:26;;;;;;;5.10;4.68;;;;;;;33.53;30.16;65484.41;5068404;28;20201;-79
2023/08/21 11:14:53;;;;;;;5.13;4.82;;;;;;;32.83;31.36;65410.59;5064394;28;20273;-78
2023/08/21 11:17:20;;;;;;;4.55;4.15;;;;;;;32.75;31.49;65402.72;5073097;28;20201;-80
2023/08/21 11:19:49;;;;;;;4.93;4.53;;;;;;;32.57;31.12;65383.75;5074112;28;20243;-77
2023/08/21 11:22:17;;;;;;;5.55;4.97;;;;;;;32.42;32.21;65367.97;5070417;28;20212;-80
2023/08/21 11:24:46;;;;;;;5.32;4.50;;;;;;;32.41;31.77;65370.06;5069985;28;20252;-81
2023/08/21 11:27:15;;;;;;;7.63;4.78;;;;;;;32.06;32.30;65335.84;5068735;28;20212;-79
2023/08/21 11:29:43;;;;;;;5.05;4.75;;;;;;;32.13;31.90;65340.06;5072646;28;20289;-80
2023/08/21 11:32:12;;;;;;;5.57;4.63;;;;;;;32.09;31.61;65339.00;5069500;28;20228;-81
2023/08/21 11:34:39;;;;;;;6.35;4.82;;;;;;;32.09;31.98;65333.72;5069278;28;20502;-80
2023/08/21 11:37:08;;;;;;;4.47;4.28;;;;;;;32.18;31.28;65343.22;5071041;28;20208;-80